Time;durP1;ratioP1;P1;durP2;ratioP2;P2;SDS_P1;SDS_P2;PMS_P1;PMS_P2;Temp;Humidity;BMP_temperature;BMP_pressure;BME280_temperature;BME280_humidity;BME280_pressure;Samples;Min_cycle;Max_cycle;Signal;HPM_P1;HPM_P2
2022/07/28 00:00:45;;;;;;;;;;;;;;;13.43;73.34;100867.53;4997928;28;1223;-88
2022/07/28 00:03:11;;;;;;;;;;;;;;;13.41;72.46;100861.50;4997159;28;1215;-89
2022/07/28 00:05:36;;;;;;;;;;;;;;;13.39;72.69;100869.22;4997526;28;1417;-88
2022/07/28 00:08:02;;;;;;;;;;;;;;;13.51;72.93;100866.09;4996862;28;1212;-87
2022/07/28 00:10:27;;;;;;;;;;;;;;;13.47;72.34;100871.34;4996491;28;1196;-89
2022/07/28 00:12:52;;;;;;;;;;;;;;;13.31;72.43;100864.34;4996174;28;1886;-89
2022/07/28 00:15:17;;;;;;;;;;;;;;;13.47;72.76;100868.59;4998036;28;869;-89
2022/07/28 00:17:42;;;;;;;;;;;;;;;13.36;72.74;100879.97;4996815;28;1070;-88
2022/07/28 00:20:08;;;;;;;;;;;;;;;13.34;72.22;100862.97;4996435;28;1507;-88
2022/07/28 00:22:33;;;;;;;;;;;;;;;13.34;73.25;100865.72;4996132;28;1120;-90
2022/07/28 00:24:58;;;;;;;;;;;;;;;13.35;72.47;100864.59;4996239;28;1194;-87
2022/07/28 00:27:23;;;;;;;;;;;;;;;13.38;72.87;100866.75;4996112;28;1118;-88
2022/07/28 00:29:48;;;;;;;;;;;;;;;12.97;73.99;100869.84;4996473;28;1281;-88
2022/07/28 00:32:14;;;;;;;;;;;;;;;13.03;73.24;100868.69;4996239;28;1321;-88
2022/07/28 00:34:39;;;;;;;;;;;;;;;13.12;72.79;100866.97;4996360;28;1886;-89
2022/07/28 00:37:04;;;;;;;;;;;;;;;12.98;72.86;100866.00;4996553;28;988;-88
2022/07/28 00:39:29;;;;;;;;;;;;;;;13.02;73.76;100863.47;4996465;28;1535;-88
2022/07/28 00:41:54;;;;;;;;;;;;;;;12.81;73.45;100868.34;4996106;28;1278;-88
2022/07/28 00:44:20;;;;;;;;;;;;;;;12.56;74.39;100868.50;4997065;28;1170;-89
2022/07/28 00:46:45;;;;;;;;;;;;;;;12.80;73.94;100869.44;4997835;28;1059;-88
2022/07/28 00:49:12;;;;;;;;;;;;;;;12.89;73.67;100868.53;4996176;28;1234;-88
2022/07/28 00:51:38;;;;;;;;;;;;;;;12.70;73.85;100866.75;4996198;28;1294;-88
2022/07/28 00:54:03;;;;;;;;;;;;;;;12.55;74.52;100864.13;4995208;28;1965;-88
2022/07/28 00:56:29;;;;;;;;;;;;;;;12.66;75.03;100857.47;4995410;28;1267;-88
2022/07/28 00:58:54;;;;;;;;;;;;;;;12.73;73.96;100855.22;4995574;28;1381;-89
2022/07/28 01:01:20;;;;;;;;;;;;;;;12.61;74.57;100841.00;4995901;28;1290;-88
2022/07/28 01:03:46;;;;;;;;;;;;;;;12.68;74.27;100839.56;4995783;28;1263;-88
2022/07/28 01:06:21;;;;;;;;;;;;;;;12.27;75.70;100854.66;4995674;28;1334;-88
2022/07/28 01:09:05;;;;;;;;;;;;;;;12.44;75.64;100850.44;4995377;28;1306;-88
2022/07/28 01:11:59;;;;;;;;;;;;;;;12.50;75.38;100845.78;4995713;28;1207;-89
2022/07/28 01:14:35;;;;;;;;;;;;;;;12.61;75.30;100849.25;4961102;28;1886;-88
2022/07/28 01:17:05;;;;;;;;;;;;;;;12.45;75.78;100848.53;4995104;28;1229;-88
2022/07/28 01:19:34;;;;;;;;;;;;;;;12.58;75.50;100844.34;4995536;28;1254;-88
2022/07/28 01:22:00;;;;;;;;;;;;;;;12.29;74.40;100847.81;4995427;28;1297;-89
2022/07/28 01:24:29;;;;;;;;;;;;;;;11.98;76.16;100841.66;4995116;28;1250;-88
2022/07/28 01:27:11;;;;;;;;;;;;;;;11.95;76.89;100844.97;4995291;28;1251;-88
2022/07/28 01:29:55;;;;;;;;;;;;;;;12.11;76.17;100845.72;4995016;28;1548;-88
2022/07/28 01:32:26;;;;;;;;;;;;;;;12.35;75.36;100846.66;4995784;28;1219;-88
2022/07/28 01:35:06;;;;;;;;;;;;;;;12.47;74.77;100851.81;4995000;28;1886;-88
2022/07/28 01:37:35;;;;;;;;;;;;;;;12.23;75.04;100848.13;4995088;28;1208;-88
2022/07/28 01:40:04;;;;;;;;;;;;;;;12.03;76.46;100843.56;4994524;28;1176;-87
2022/07/28 01:42:36;;;;;;;;;;;;;;;12.08;76.31;100844.34;4995175;28;1221;-88
2022/07/28 01:45:03;;;;;;;;;;;;;;;12.06;76.91;100845.75;4996131;28;1237;-89
2022/07/28 01:47:29;;;;;;;;;;;;;;;11.92;77.92;100836.47;4994821;28;1207;-88
2022/07/28 01:49:56;;;;;;;;;;;;;;;12.12;77.27;100839.94;4995643;28;1327;-88
2022/07/28 01:52:22;;;;;;;;;;;;;;;12.34;76.49;100834.03;4995251;28;1303;-89
2022/07/28 01:54:49;;;;;;;;;;;;;;;12.36;75.99;100837.31;4995324;28;1907;-88
2022/07/28 01:57:15;;;;;;;;;;;;;;;12.21;75.79;100834.69;4995177;28;1390;-88
2022/07/28 01:59:41;;;;;;;;;;;;;;;12.06;76.42;100832.84;4995092;28;1456;-88
2022/07/28 02:02:08;;;;;;;;;;;;;;;12.25;76.05;100843.97;4995032;28;1378;-87
2022/07/28 02:04:36;;;;;;;;;;;;;;;12.23;76.30;100840.72;4996694;28;1231;-88
2022/07/28 02:07:02;;;;;;;;;;;;;;;12.27;75.20;100846.44;4995300;28;1218;-88
2022/07/28 02:09:29;;;;;;;;;;;;;;;12.20;75.57;100841.28;4995241;28;1212;-89
2022/07/28 02:11:55;;;;;;;;;;;;;;;11.96;76.50;100841.13;4978903;28;1451;-88
2022/07/28 02:14:22;;;;;;;;;;;;;;;11.79;77.30;100843.38;4994712;28;1954;-88
2022/07/28 02:16:56;;;;;;;;;;;;;;;11.99;76.67;100843.28;4995154;28;1433;-88
2022/07/28 02:19:22;;;;;;;;;;;;;;;11.92;77.16;100840.03;4996793;28;936;-88
2022/07/28 02:21:48;;;;;;;;;;;;;;;12.02;76.67;100836.41;4994064;28;1310;-87
2022/07/28 02:24:15;;;;;;;;;;;;;;;12.11;76.34;100830.06;4993841;28;1181;-87
2022/07/28 02:26:43;;;;;;;;;;;;;;;11.91;76.54;100837.59;4993813;28;1515;-88
2022/07/28 02:29:11;;;;;;;;;;;;;;;11.86;77.29;100834.84;4994040;28;1459;-88
2022/07/28 02:31:38;;;;;;;;;;;;;;;11.93;76.85;100824.38;4994249;28;1204;-87
2022/07/28 02:34:05;;;;;;;;;;;;;;;11.76;77.65;100824.75;4993855;28;1910;-87
2022/07/28 02:36:32;;;;;;;;;;;;;;;11.99;76.92;100831.50;4994321;28;1283;-88
2022/07/28 02:39:02;;;;;;;;;;;;;;;12.04;76.50;100831.47;4994159;28;1492;-88
2022/07/28 02:41:30;;;;;;;;;;;;;;;11.75;77.29;100826.66;4994143;28;1255;-88
2022/07/28 02:44:03;;;;;;;;;;;;;;;11.59;78.35;100837.94;4994072;28;1307;-88
2022/07/28 02:46:36;;;;;;;;;;;;;;;11.60;78.23;100834.91;4993599;28;1169;-88
2022/07/28 02:49:05;;;;;;;;;;;;;;;11.77;77.49;100831.88;4993806;28;1435;-88
2022/07/28 02:51:32;;;;;;;;;;;;;;;11.80;77.38;100827.75;4995740;28;1247;-88
2022/07/28 02:53:58;;;;;;;;;;;;;;;11.86;77.02;100832.09;4998403;28;1946;-88
2022/07/28 02:56:24;;;;;;;;;;;;;;;11.67;77.62;100826.38;4998234;28;1203;-87
2022/07/28 02:58:50;;;;;;;;;;;;;;;11.65;77.82;100834.88;4997979;28;1385;-89
2022/07/28 03:01:21;;;;;;;;;;;;;;;11.61;78.41;100842.03;4997964;28;1260;-89
2022/07/28 03:03:47;;;;;;;;;;;;;;;11.60;78.37;100834.91;4997645;28;1303;-88
2022/07/28 03:06:12;;;;;;;;;;;;;;;11.67;78.08;100845.56;4998310;28;1367;-89
2022/07/28 03:08:37;;;;;;;;;;;;;;;11.77;78.00;100845.56;4998317;28;1259;-88
2022/07/28 03:11:09;;;;;;;;;;;;;;;11.63;78.39;100844.50;4998267;28;1271;-89
2022/07/28 03:13:36;;;;;;;;;;;;;;;11.57;78.84;100840.94;4998388;28;1965;-89
2022/07/28 03:16:02;;;;;;;;;;;;;;;11.50;78.58;100848.66;4997790;28;1220;-88
2022/07/28 03:18:27;;;;;;;;;;;;;;;11.44;78.87;100847.03;4998434;28;1219;-88
2022/07/28 03:20:53;;;;;;;;;;;;;;;11.38;79.82;100848.16;4998092;28;1398;-87
2022/07/28 03:23:20;;;;;;;;;;;;;;;11.44;79.65;100847.03;4997452;28;1339;-88
2022/07/28 03:25:50;;;;;;;;;;;;;;;11.44;79.13;100851.69;4998434;28;1315;-89
2022/07/28 03:28:18;;;;;;;;;;;;;;;11.53;79.30;100853.59;4998049;28;1319;-89
2022/07/28 03:30:50;;;;;;;;;;;;;;;11.53;78.66;100850.00;4999000;28;1176;-89
2022/07/28 03:33:16;;;;;;;;;;;;;;;11.52;78.52;100856.59;5001610;28;1959;-91
2022/07/28 03:35:44;;;;;;;;;;;;;;;11.47;78.38;100856.63;5010285;28;1399;-88
2022/07/28 03:38:14;;;;;;;;;;;;;;;11.30;79.15;100843.22;4997439;28;1334;-88
2022/07/28 03:40:41;;;;;;;;;;;;;;;11.34;79.71;100847.03;4998725;28;836;-88
2022/07/28 03:43:08;;;;;;;;;;;;;;;11.45;79.32;100848.66;4996789;28;1430;-88
2022/07/28 03:45:33;;;;;;;;;;;;;;;11.36;78.88;100845.66;4996930;28;1321;-88
2022/07/28 03:47:59;;;;;;;;;;;;;;;11.30;79.37;100852.28;4995862;28;1626;-89
2022/07/28 03:50:26;;;;;;;;;;;;;;;11.45;78.94;100865.13;4994243;28;1424;-90
2022/07/28 03:52:52;;;;;;;;;;;;;;;11.34;78.56;100853.34;4990651;28;1902;-89
2022/07/28 03:55:17;;;;;;;;;;;;;;;11.33;78.39;100856.34;4996464;28;1433;-89
2022/07/28 03:57:42;;;;;;;;;;;;;;;11.40;78.60;100856.88;4995788;28;1707;-89
2022/07/28 04:00:08;;;;;;;;;;;;;;;11.44;78.08;100865.38;4994096;28;1475;-89
2022/07/28 04:02:33;;;;;;;;;;;;;;;11.24;79.13;100850.63;4995479;28;1301;-90
2022/07/28 04:04:59;;;;;;;;;;;;;;;11.17;79.12;100858.28;4995847;28;1716;-90
2022/07/28 04:07:24;;;;;;;;;;;;;;;11.07;80.17;100852.00;4994282;28;1416;-88
2022/07/28 04:09:49;;;;;;;;;;;;;;;11.18;79.57;100859.94;4988554;28;1600;-90
2022/07/28 04:12:14;;;;;;;;;;;;;;;11.26;79.91;100851.16;5002595;28;1769;-90
2022/07/28 04:14:40;;;;;;;;;;;;;;;11.25;79.51;100849.53;4994733;28;1898;-88
2022/07/28 04:17:05;;;;;;;;;;;;;;;11.21;79.86;100853.94;4994684;28;1650;-88
2022/07/28 04:19:30;;;;;;;;;;;;;;;11.21;79.39;100853.09;4994593;28;1353;-88
2022/07/28 04:21:55;;;;;;;;;;;;;;;11.27;79.53;100852.00;4995121;28;1782;-87
2022/07/28 04:24:20;;;;;;;;;;;;;;;11.23;79.36;100851.72;4991215;28;1392;-88
2022/07/28 04:26:45;;;;;;;;;;;;;;;11.26;79.65;100850.34;4995058;28;1722;-88
2022/07/28 04:29:10;;;;;;;;;;;;;;;11.30;79.40;100846.78;4994287;28;1424;-87
2022/07/28 04:31:36;;;;;;;;;;;;;;;11.16;80.14;100850.34;4990848;28;1404;-88
2022/07/28 04:34:01;;;;;;;;;;;;;;;11.19;79.76;100849.81;4994251;28;1894;-88
2022/07/28 04:36:26;;;;;;;;;;;;;;;11.24;80.04;100847.06;4994926;28;1228;-88
2022/07/28 04:38:51;;;;;;;;;;;;;;;11.25;79.57;100843.22;4994869;28;1337;-88
2022/07/28 04:41:16;;;;;;;;;;;;;;;11.15;80.08;100851.44;4999283;28;1590;-88
2022/07/28 04:43:42;;;;;;;;;;;;;;;11.19;79.96;100847.91;4995060;28;1592;-88
2022/07/28 04:46:07;;;;;;;;;;;;;;;11.13;80.17;100853.66;4994300;28;1518;-88
2022/07/28 04:48:32;;;;;;;;;;;;;;;11.22;80.72;100857.50;4991049;28;1267;-88
2022/07/28 04:50:57;;;;;;;;;;;;;;;11.22;80.28;100855.56;4992404;28;1597;-88
2022/07/28 04:53:23;;;;;;;;;;;;;;;11.17;80.29;100857.47;4992728;28;1903;-88
2022/07/28 04:55:48;;;;;;;;;;;;;;;11.17;81.21;100857.47;4987476;28;1410;-88
2022/07/28 04:58:13;;;;;;;;;;;;;;;11.03;81.50;100853.66;4989399;28;1421;-88
2022/07/28 05:00:38;;;;;;;;;;;;;;;10.84;81.51;100854.22;4994222;28;1412;-88
2022/07/28 05:03:04;;;;;;;;;;;;;;;10.92;81.35;100847.34;4994213;28;1623;-88
2022/07/28 05:05:29;;;;;;;;;;;;;;;10.91;81.50;100854.75;4992071;28;1360;-87
2022/07/28 05:07:54;;;;;;;;;;;;;;;11.01;81.79;100851.19;4999022;28;1456;-87
2022/07/28 05:10:19;;;;;;;;;;;;;;;11.23;81.37;100850.88;4993884;28;1377;-86
2022/07/28 05:12:46;;;;;;;;;;;;;;;11.12;81.27;100846.53;4991283;28;1895;-87
2022/07/28 05:15:11;;;;;;;;;;;;;;;10.92;82.06;100842.69;4989795;28;1467;-87
2022/07/28 05:17:36;;;;;;;;;;;;;;;11.12;81.62;100844.63;4990405;28;1255;-87
2022/07/28 05:20:02;;;;;;;;;;;;;;;11.18;81.40;100839.94;4993308;28;1377;-87
2022/07/28 05:22:29;;;;;;;;;;;;;;;11.27;80.75;100841.03;4992890;28;1728;-87
2022/07/28 05:24:54;;;;;;;;;;;;;;;11.20;81.22;100835.84;4988035;28;1377;-88
2022/07/28 05:27:19;;;;;;;;;;;;;;;11.38;81.42;100842.66;4993374;28;1366;-87
2022/07/28 05:29:45;;;;;;;;;;;;;;;11.39;81.82;100836.09;4992502;28;1457;-88
2022/07/28 05:32:11;;;;;;;;;;;;;;;11.57;81.50;100840.94;4994916;28;1051;-87
2022/07/28 05:34:36;;;;;;;;;;;;;;;11.57;82.05;100848.38;4992743;28;1898;-88
2022/07/28 05:37:01;;;;;;;;;;;;;;;11.62;82.08;100859.31;4990067;28;1353;-87
2022/07/28 05:39:31;;;;;;;;;;;;;;;11.74;81.92;100848.84;5008890;28;1161;-87
2022/07/28 05:41:57;;;;;;;;;;;;;;;11.71;82.61;100854.91;4993666;28;1277;-88
2022/07/28 05:44:22;;;;;;;;;;;;;;;11.72;82.49;100849.16;4993280;28;1329;-88
2022/07/28 05:46:47;;;;;;;;;;;;;;;11.84;82.38;100840.63;4993638;28;1546;-87
2022/07/28 05:49:12;;;;;;;;;;;;;;;11.96;82.03;100846.59;4994040;28;1688;-86
2022/07/28 05:51:37;;;;;;;;;;;;;;;11.98;81.59;100844.41;4990826;28;1611;-87
2022/07/28 05:54:02;;;;;;;;;;;;;;;11.95;82.11;100841.41;4992878;28;1902;-87
2022/07/28 05:56:28;;;;;;;;;;;;;;;11.99;82.34;100846.03;4994680;28;1178;-87
2022/07/28 05:58:53;;;;;;;;;;;;;;;12.07;82.40;100848.22;4992192;28;1460;-89
2022/07/28 06:01:18;;;;;;;;;;;;;;;12.17;82.47;100850.06;4976140;28;1440;-88
2022/07/28 06:03:43;;;;;;;;;;;;;;;12.22;82.67;100847.31;4993915;28;1268;-85
2022/07/28 06:06:09;;;;;;;;;;;;;;;12.27;82.42;100847.25;4993134;28;1692;-85
2022/07/28 06:08:35;;;;;;;;;;;;;;;12.37;82.13;100838.97;4992196;28;1524;-85
2022/07/28 06:11:10;;;;;;;;;;;;;;;12.44;82.07;100844.97;4994478;28;1651;-85
2022/07/28 06:13:35;;;;;;;;;;;;;;;12.55;81.46;100839.41;4993375;28;1898;-85
2022/07/28 06:16:01;;;;;;;;;;;;;;;12.59;81.22;100840.50;4994317;28;1184;-85
2022/07/28 06:18:26;;;;;;;;;;;;;;;12.61;81.23;100846.50;4995001;28;1216;-85
2022/07/28 06:20:51;;;;;;;;;;;;;;;12.63;81.43;100836.88;4995337;28;1008;-85
2022/07/28 06:23:22;;;;;;;;;;;;;;;12.72;82.28;100834.34;4993601;28;1383;-85
2022/07/28 06:25:48;;;;;;;;;;;;;;;12.74;82.59;100843.13;4995600;28;1288;-85
2022/07/28 06:28:13;;;;;;;;;;;;;;;12.75;82.30;100837.34;4995044;28;1366;-85
2022/07/28 06:30:38;;;;;;;;;;;;;;;12.82;82.34;100837.00;4990915;28;1271;-84
2022/07/28 06:33:04;;;;;;;;;;;;;;;12.84;81.43;100832.06;4988842;28;1969;-85
2022/07/28 06:35:31;;;;;;;;;;;;;;;12.87;82.39;100837.78;4993379;28;1395;-84
2022/07/28 06:37:56;;;;;;;;;;;;;;;12.93;81.89;100841.28;4995396;28;1646;-85
2022/07/28 06:40:21;;;;;;;;;;;;;;;12.97;81.63;100828.63;4996806;28;739;-85
2022/07/28 06:42:48;;;;;;;;;;;;;;;12.98;82.08;100832.19;4996571;28;1329;-86
2022/07/28 06:45:13;;;;;;;;;;;;;;;13.02;81.27;100834.06;4999372;28;1414;-85
2022/07/28 06:47:38;;;;;;;;;;;;;;;13.05;81.54;100841.75;5008559;28;1366;-85
2022/07/28 06:50:04;;;;;;;;;;;;;;;13.08;81.05;100840.38;5002398;28;1543;-85
2022/07/28 06:52:30;;;;;;;;;;;;;;;13.11;80.73;100834.25;5001967;28;1140;-85
2022/07/28 06:54:55;;;;;;;;;;;;;;;13.15;80.68;100827.94;4993818;28;1971;-86
2022/07/28 06:57:20;;;;;;;;;;;;;;;13.25;78.82;100829.78;4990458;28;1394;-86
2022/07/28 06:59:46;;;;;;;;;;;;;;;13.32;79.03;100829.44;4992968;28;1362;-85
2022/07/28 07:02:12;;;;;;;;;;;;;;;13.36;78.77;100828.56;4983666;28;1276;-86
2022/07/28 07:04:37;;;;;;;;;;;;;;;13.42;78.51;100832.09;4997567;28;1441;-86
2022/07/28 07:07:02;;;;;;;;;;;;;;;13.48;76.79;100828.97;5002914;28;1590;-85
2022/07/28 07:09:28;;;;;;;;;;;;;;;13.53;76.96;100828.09;4993734;28;817;-85
2022/07/28 07:11:53;;;;;;;;;;;;;;;13.60;78.67;100829.41;4991201;28;1444;-85
2022/07/28 07:14:18;;;;;;;;;;;;;;;13.74;77.49;100825.94;4991252;28;1894;-83
2022/07/28 07:16:43;;;;;;;;;;;;;;;13.76;75.72;100820.97;4989785;28;1527;-86
2022/07/28 07:19:08;;;;;;;;;;;;;;;13.80;76.95;100825.56;4993040;28;1666;-85
2022/07/28 07:21:33;;;;;;;;;;;;;;;13.84;75.59;100821.13;4993637;28;1440;-84
2022/07/28 07:23:59;;;;;;;;;;;;;;;14.00;75.00;100817.06;4990728;28;1479;-84
2022/07/28 07:26:24;;;;;;;;;;;;;;;14.02;75.53;100825.84;4993898;28;1027;-84
2022/07/28 07:28:49;;;;;;;;;;;;;;;14.10;76.11;100826.31;4992440;28;1474;-84
2022/07/28 07:31:14;;;;;;;;;;;;;;;14.16;74.20;100830.63;4993615;28;1290;-85
2022/07/28 07:33:39;;;;;;;;;;;;;;;14.26;75.80;100823.03;4994415;28;1940;-84
2022/07/28 07:36:05;;;;;;;;;;;;;;;14.29;73.84;100818.88;4995001;28;1533;-85
2022/07/28 07:38:30;;;;;;;;;;;;;;;14.39;74.00;100816.00;4997727;28;1499;-85
2022/07/28 07:40:56;;;;;;;;;;;;;;;14.46;74.88;100810.13;4996294;28;1785;-85
2022/07/28 07:43:21;;;;;;;;;;;;;;;14.47;74.72;100809.81;4997564;28;1284;-85
2022/07/28 07:45:46;;;;;;;;;;;;;;;14.32;73.71;100779.72;4996246;28;1389;-85
2022/07/28 07:48:11;;;;;;;;;;;;;;;14.49;75.56;100813.09;4996285;28;1718;-85
2022/07/28 07:50:37;;;;;;;;;;;;;;;14.52;73.91;100807.00;4996733;28;1255;-85
2022/07/28 07:53:02;;;;;;;;;;;;;;;14.49;74.27;100807.59;4993712;28;1963;-85
2022/07/28 07:55:27;;;;;;;;;;;;;;;14.51;73.11;100805.34;4995486;28;1733;-85
2022/07/28 07:57:52;;;;;;;;;;;;;;;14.63;74.28;100808.44;4995654;28;1749;-85
2022/07/28 08:00:17;;;;;;;;;;;;;;;14.65;73.27;100808.16;4996028;28;1286;-85
2022/07/28 08:02:43;;;;;;;;;;;;;;;14.69;73.13;100804.50;4997131;28;801;-85
2022/07/28 08:05:08;;;;;;;;;;;;;;;14.76;72.60;100802.19;4995529;28;1381;-85
2022/07/28 08:07:34;;;;;;;;;;;;;;;14.77;72.39;100805.75;4995761;28;1157;-84
2022/07/28 08:09:59;;;;;;;;;;;;;;;14.84;73.50;100799.88;4997319;28;1270;-85
2022/07/28 08:12:24;;;;;;;;;;;;;;;14.89;73.06;100797.00;4997252;28;1087;-84
2022/07/28 08:14:49;;;;;;;;;;;;;;;14.90;73.63;100796.72;4996133;28;1910;-85
2022/07/28 08:17:14;;;;;;;;;;;;;;;14.92;73.82;100801.94;4996172;28;1009;-85
2022/07/28 08:19:40;;;;;;;;;;;;;;;14.97;71.01;100788.06;4996156;28;1423;-85
2022/07/28 08:22:05;;;;;;;;;;;;;;;15.02;73.15;100791.53;4995446;28;1224;-85
2022/07/28 08:24:30;;;;;;;;;;;;;;;15.07;73.42;100788.69;4991072;28;1617;-84
2022/07/28 08:26:55;;;;;;;;;;;;;;;15.11;73.03;100775.94;4995986;28;1208;-84
2022/07/28 08:29:21;;;;;;;;;;;;;;;15.18;72.88;100774.72;4990704;28;1324;-85
2022/07/28 08:31:46;;;;;;;;;;;;;;;15.17;73.15;100779.41;4994787;28;1395;-84
2022/07/28 08:34:11;;;;;;;;;;;;;;;15.26;71.94;100776.78;4994919;28;1906;-86
2022/07/28 08:36:36;;;;;;;;;;;;;;;15.23;73.45;100780.94;4994969;28;1820;-85
2022/07/28 08:39:01;;;;;;;;;;;;;;;15.31;72.17;100790.47;4994642;28;1383;-85
2022/07/28 08:41:42;;;;;;;;;;;;;;;15.38;71.48;100785.38;4994207;28;1349;-86
2022/07/28 08:44:09;;;;;;;;;;;;;;;15.46;70.64;100777.22;4976041;28;1298;-85
2022/07/28 08:46:35;;;;;;;;;;;;;;;15.39;71.02;100776.81;5003082;28;1275;-85
2022/07/28 08:49:01;;;;;;;;;;;;;;;15.44;71.42;100781.38;4994202;28;1318;-85
2022/07/28 08:51:27;;;;;;;;;;;;;;;15.56;70.99;100778.97;4995874;28;1288;-84
2022/07/28 08:53:53;;;;;;;;;;;;;;;15.69;69.20;100763.53;4992802;28;1918;-85
2022/07/28 08:56:19;;;;;;;;;;;;;;;15.63;70.31;100770.28;4993945;28;1186;-85
2022/07/28 08:58:44;;;;;;;;;;;;;;;15.60;71.64;100773.66;4989862;28;1768;-85
2022/07/28 09:01:09;;;;;;;;;;;;;;;15.69;70.33;100766.28;4994539;28;1412;-85
2022/07/28 09:03:35;;;;;;;;;;;;;;;15.70;69.89;100762.41;4994296;28;1413;-85
2022/07/28 09:06:00;;;;;;;;;;;;;;;15.73;68.73;100761.78;4996278;28;1292;-85
2022/07/28 09:08:26;;;;;;;;;;;;;;;15.79;70.34;100755.84;4992849;28;1451;-85
2022/07/28 09:10:51;;;;;;;;;;;;;;;15.87;69.80;100748.78;4992236;28;1342;-85
2022/07/28 09:13:16;;;;;;;;;;;;;;;15.89;69.52;100744.59;4995583;28;1898;-85
2022/07/28 09:15:44;;;;;;;;;;;;;;;15.89;70.28;100752.88;4994553;28;1659;-85
2022/07/28 09:18:10;;;;;;;;;;;;;;;16.04;69.82;100748.94;4992771;28;1670;-85
2022/07/28 09:20:35;;;;;;;;;;;;;;;16.08;68.80;100741.66;4994352;28;1299;-85
2022/07/28 09:23:01;;;;;;;;;;;;;;;16.16;67.71;100746.44;4993009;28;1332;-85
2022/07/28 09:25:27;;;;;;;;;;;;;;;16.13;65.99;100744.31;4994848;28;1149;-85
2022/07/28 09:27:53;;;;;;;;;;;;;;;16.25;67.64;100741.00;4993727;28;1358;-84
2022/07/28 09:30:28;;;;;;;;;;;;;;;16.44;67.04;100738.06;4992633;28;1311;-85
2022/07/28 09:33:13;;;;;;;;;;;;;;;16.49;67.18;100738.75;4992224;28;1957;-85
2022/07/28 09:35:42;;;;;;;;;;;;;;;16.48;66.67;100750.13;4994628;28;1220;-84
2022/07/28 09:38:08;;;;;;;;;;;;;;;16.56;67.42;100743.84;4992403;28;1341;-85
2022/07/28 09:40:33;;;;;;;;;;;;;;;16.59;68.00;100751.50;4994860;28;1406;-85
2022/07/28 09:42:58;;;;;;;;;;;;;;;16.58;67.20;100753.47;4992500;28;1383;-85
2022/07/28 09:45:27;;;;;;;;;;;;;;;16.67;65.32;100756.31;4992383;28;1374;-85
2022/07/28 09:48:22;;;;;;;;;;;;;;;16.75;65.53;100747.25;4993212;28;1354;-85
2022/07/28 09:50:47;;;;;;;;;;;;;;;16.86;65.78;100739.50;4985260;28;1410;-85
2022/07/28 09:53:22;;;;;;;;;;;;;;;16.97;65.52;100743.63;4994740;28;1949;-85
2022/07/28 09:55:55;;;;;;;;;;;;;;;17.16;65.78;100743.41;4974348;28;1168;-85
2022/07/28 09:58:20;;;;;;;;;;;;;;;17.21;64.37;100748.78;4988599;28;1360;-84
2022/07/28 10:00:45;;;;;;;;;;;;;;;17.26;63.36;100738.44;4992437;28;1168;-85
2022/07/28 10:03:22;;;;;;;;;;;;;;;17.35;62.65;100741.22;4991229;28;1442;-85
2022/07/28 10:05:48;;;;;;;;;;;;;;;17.19;63.34;100738.03;4990817;28;1479;-85
2022/07/28 10:08:13;;;;;;;;;;;;;;;17.19;61.11;100726.16;4994637;28;1047;-85
2022/07/28 10:10:38;;;;;;;;;;;;;;;17.13;60.77;100725.50;4987436;28;1251;-85
2022/07/28 10:13:04;;;;;;;;;;;;;;;17.13;66.22;100724.69;4993138;28;1879;-85
2022/07/28 10:18:13;;;;;;;;;;;;;;;17.23;62.65;100725.22;4995207;28;734;-84
2022/07/28 10:20:38;;;;;;;;;;;;;;;17.35;62.78;100716.31;4990003;28;1374;-85
2022/07/28 10:23:05;;;;;;;;;;;;;;;17.29;63.15;100714.81;4993311;28;1405;-85
2022/07/28 10:25:31;;;;;;;;;;;;;;;17.30;65.35;100708.97;4992226;28;1360;-84
2022/07/28 10:27:58;;;;;;;;;;;;;;;17.49;63.26;100702.34;4992367;28;1443;-85
2022/07/28 10:30:23;;;;;;;;;;;;;;;17.51;64.01;100700.09;4992448;28;1168;-85
2022/07/28 10:32:50;;;;;;;;;;;;;;;17.59;64.35;100690.97;4991017;28;1894;-86
2022/07/28 10:35:16;;;;;;;;;;;;;;;17.48;63.29;100692.41;5001508;28;1291;-85
2022/07/28 10:37:47;;;;;;;;;;;;;;;17.53;62.79;100693.06;4994430;28;1319;-84
2022/07/28 10:40:15;;;;;;;;;;;;;;;17.52;61.58;100685.94;4990362;28;1607;-85
2022/07/28 10:42:40;;;;;;;;;;;;;;;17.64;62.57;100690.84;4993009;28;1216;-85
2022/07/28 10:45:06;;;;;;;;;;;;;;;17.68;61.68;100683.53;4991651;28;1793;-85
2022/07/28 10:47:32;;;;;;;;;;;;;;;17.72;61.96;100678.97;4994036;28;1847;-85
2022/07/28 10:49:57;;;;;;;;;;;;;;;17.81;59.47;100681.75;4994115;28;1003;-85
2022/07/28 10:52:22;;;;;;;;;;;;;;;17.82;61.53;100675.06;4990161;28;1173;-86
2022/07/28 10:55:06;;;;;;;;;;;;;;;17.66;62.56;100680.28;4992155;28;1951;-84
2022/07/28 10:57:33;;;;;;;;;;;;;;;17.67;62.55;100684.69;4990459;28;1746;-85
2022/07/28 11:00:08;;;;;;;;;;;;;;;17.64;63.56;100685.31;4990319;28;1307;-85
2022/07/28 11:02:46;;;;;;;;;;;;;;;17.64;62.42;100677.81;4992645;28;1206;-85
2022/07/28 11:05:28;;;;;;;;;;;;;;;17.69;62.07;100676.88;4993361;28;1431;-86
2022/07/28 11:07:53;;;;;;;;;;;;;;;17.65;60.98;100671.16;4993525;28;1404;-85
2022/07/28 11:10:19;;;;;;;;;;;;;;;17.68;61.42;100670.50;4993133;28;1457;-85
2022/07/28 11:12:47;;;;;;;;;;;;;;;17.80;61.23;100664.31;4995851;28;794;-85
2022/07/28 11:15:26;;;;;;;;;;;;;;;17.79;63.14;100679.31;4993746;28;1894;-85
2022/07/28 11:18:03;;;;;;;;;;;;;;;17.93;61.59;100671.69;4991276;28;1319;-85
2022/07/28 11:20:47;;;;;;;;;;;;;;;18.06;61.75;100667.91;4996270;28;1343;-85
2022/07/28 11:23:31;;;;;;;;;;;;;;;18.21;63.74;100669.34;4996399;28;1825;-88
2022/07/28 11:26:15;;;;;;;;;;;;;;;18.29;62.40;100662.22;4996063;28;1239;-89
2022/07/28 11:28:58;;;;;;;;;;;;;;;18.30;61.65;100664.63;4995842;28;1734;-87
2022/07/28 11:31:42;;;;;;;;;;;;;;;18.42;60.19;100655.66;5005019;28;1500;-87
2022/07/28 11:34:07;;;;;;;;;;;;;;;18.49;59.90;100656.78;4996012;28;1957;-87
2022/07/28 11:36:51;;;;;;;;;;;;;;;18.41;60.11;100656.78;4992066;28;1360;-86
2022/07/28 11:39:20;;;;;;;;;;;;;;;18.38;61.35;100655.47;4995644;28;1311;-87
2022/07/28 11:41:45;;;;;;;;;;;;;;;18.33;59.45;100646.53;4995233;28;1722;-86
2022/07/28 11:44:23;;;;;;;;;;;;;;;18.37;59.21;100645.53;4995304;28;1806;-87
2022/07/28 11:46:48;;;;;;;;;;;;;;;18.49;60.65;100639.31;4994450;28;1626;-85
2022/07/28 11:49:15;;;;;;;;;;;;;;;18.57;59.04;100641.28;4996885;28;968;-86
2022/07/28 11:51:40;;;;;;;;;;;;;;;18.66;58.93;100639.31;4996228;28;1414;-86
2022/07/28 11:54:14;;;;;;;;;;;;;;;18.68;60.16;100644.53;4995235;28;1894;-87
2022/07/28 11:56:39;;;;;;;;;;;;;;;18.59;58.56;100639.00;4992115;28;1789;-86
2022/07/28 11:59:06;;;;;;;;;;;;;;;18.58;56.65;100633.78;4992394;28;1334;-86
2022/07/28 12:01:32;;;;;;;;;;;;;;;18.63;59.31;100634.41;4995072;28;1769;-86
2022/07/28 12:03:58;;;;;;;;;;;;;;;18.71;58.84;100625.28;4991322;28;1717;-86
2022/07/28 12:06:24;;;;;;;;;;;;;;;18.85;58.55;100627.81;5010052;28;1495;-87
2022/07/28 12:08:52;;;;;;;;;;;;;;;18.88;56.53;100624.41;4995663;28;1335;-86
2022/07/28 12:11:17;;;;;;;;;;;;;;;18.88;57.88;100624.41;4995015;28;1840;-86
2022/07/28 12:13:43;;;;;;;;;;;;;;;19.04;58.16;100628.22;4978514;28;1890;-86
2022/07/28 12:16:08;;;;;;;;;;;;;;;19.14;57.54;100621.50;4979444;28;1436;-86
2022/07/28 12:18:33;;;;;;;;;;;;;;;19.16;56.02;100624.72;4996289;28;1008;-85
2022/07/28 12:20:59;;;;;;;;;;;;;;;19.21;56.36;100619.00;4995996;28;1765;-86
2022/07/28 12:23:28;;;;;;;;;;;;;;;19.28;54.77;100613.72;4994733;28;1202;-86
2022/07/28 12:25:53;;;;;;;;;;;;;;;19.33;54.75;100612.72;4995006;28;1247;-86
2022/07/28 12:28:19;;;;;;;;;;;;;;;19.38;55.43;100616.13;4995144;28;1107;-86
2022/07/28 12:30:45;;;;;;;;;;;;;;;19.45;55.66;100613.63;4993392;28;1508;-88
2022/07/28 12:33:16;;;;;;;;;;;;;;;19.46;56.89;100611.66;4986273;28;1894;-89
2022/07/28 12:35:41;;;;;;;;;;;;;;;19.51;55.98;100609.50;4994564;28;1424;-88
2022/07/28 12:38:06;;;;;;;;;;;;;;;19.60;58.10;100601.94;4994906;28;1714;-89
2022/07/28 12:40:32;;;;;;;;;;;;;;;19.66;58.00;100602.53;4994973;28;1810;-89
2022/07/28 12:42:57;;;;;;;;;;;;;;;19.74;55.33;100598.88;4994421;28;1349;-90
2022/07/28 12:45:22;;;;;;;;;;;;;;;19.75;54.78;100591.34;4992365;28;1335;-89
2022/07/28 12:47:47;;;;;;;;;;;;;;;19.90;54.99;100588.78;4995977;28;1011;-88
2022/07/28 12:50:17;;;;;;;;;;;;;;;19.96;53.18;100589.38;4994561;28;1821;-89